sensor_id;sensor_type;location;lat;lon;timestamp;P1;durP1;ratioP1;P2;durP2;ratioP2
44276;SDS011;29973;43.742;1.236;2022-09-09T00:02:19;9.45;;;3.10;;
44276;SDS011;29973;43.742;1.236;2022-09-09T00:04:58;5.82;;;2.95;;
44276;SDS011;29973;43.742;1.236;2022-09-09T00:07:37;7.88;;;3.33;;
44276;SDS011;29973;43.742;1.236;2022-09-09T00:10:27;9.20;;;3.13;;
44276;SDS011;29973;43.742;1.236;2022-09-09T00:21:17;6.28;;;3.28;;
44276;SDS011;29973;43.742;1.236;2022-09-09T00:23:55;7.22;;;3.33;;
44276;SDS011;29973;43.742;1.236;2022-09-09T00:28:59;6.07;;;3.15;;
44276;SDS011;29973;43.742;1.236;2022-09-09T00:31:42;9.18;;;3.50;;
44276;SDS011;29973;43.742;1.236;2022-09-09T00:34:15;8.18;;;3.22;;
44276;SDS011;29973;43.742;1.236;2022-09-09T00:36:48;9.23;;;3.05;;
44276;SDS011;29973;43.742;1.236;2022-09-09T00:42:10;7.13;;;3.40;;
44276;SDS011;29973;43.742;1.236;2022-09-09T00:45:10;11.00;;;3.38;;
44276;SDS011;29973;43.742;1.236;2022-09-09T00:47:50;7.47;;;2.88;;
44276;SDS011;29973;43.742;1.236;2022-09-09T00:58:08;4.80;;;2.92;;
44276;SDS011;29973;43.742;1.236;2022-09-09T01:00:49;10.45;;;3.38;;
44276;SDS011;29973;43.742;1.236;2022-09-09T01:11:22;7.35;;;3.10;;
44276;SDS011;29973;43.742;1.236;2022-09-09T01:13:53;6.13;;;2.80;;
44276;SDS011;29973;43.742;1.236;2022-09-09T01:16:25;5.10;;;3.25;;
44276;SDS011;29973;43.742;1.236;2022-09-09T01:18:53;7.68;;;3.22;;
44276;SDS011;29973;43.742;1.236;2022-09-09T01:24:08;8.25;;;3.10;;
44276;SDS011;29973;43.742;1.236;2022-09-09T01:26:47;10.20;;;3.35;;
44276;SDS011;29973;43.742;1.236;2022-09-09T01:29:16;6.35;;;3.10;;
44276;SDS011;29973;43.742;1.236;2022-09-09T01:34:21;6.53;;;3.00;;
44276;SDS011;29973;43.742;1.236;2022-09-09T01:39:16;6.97;;;2.85;;
44276;SDS011;29973;43.742;1.236;2022-09-09T01:41:42;4.22;;;2.97;;
44276;SDS011;29973;43.742;1.236;2022-09-09T01:44:08;4.53;;;2.88;;
44276;SDS011;29973;43.742;1.236;2022-09-09T01:46:34;5.57;;;2.92;;
44276;SDS011;29973;43.742;1.236;2022-09-09T01:49:00;8.35;;;3.42;;
44276;SDS011;29973;43.742;1.236;2022-09-09T01:51:28;7.57;;;2.78;;
44276;SDS011;29973;43.742;1.236;2022-09-09T01:53:55;5.35;;;3.40;;
44276;SDS011;29973;43.742;1.236;2022-09-09T02:04:40;8.57;;;3.47;;
44276;SDS011;29973;43.742;1.236;2022-09-09T02:09:57;6.13;;;2.97;;
44276;SDS011;29973;43.742;1.236;2022-09-09T02:12:44;6.30;;;2.92;;
44276;SDS011;29973;43.742;1.236;2022-09-09T02:15:17;8.23;;;3.58;;
44276;SDS011;29973;43.742;1.236;2022-09-09T02:17:49;8.77;;;3.15;;
44276;SDS011;29973;43.742;1.236;2022-09-09T02:20:17;9.95;;;2.97;;
44276;SDS011;29973;43.742;1.236;2022-09-09T02:22:44;10.15;;;3.88;;
44276;SDS011;29973;43.742;1.236;2022-09-09T02:25:14;5.93;;;3.15;;
44276;SDS011;29973;43.742;1.236;2022-09-09T02:27:42;8.60;;;3.47;;
44276;SDS011;29973;43.742;1.236;2022-09-09T02:30:10;4.35;;;3.45;;
44276;SDS011;29973;43.742;1.236;2022-09-09T02:32:37;5.15;;;3.78;;
44276;SDS011;29973;43.742;1.236;2022-09-09T02:35:07;8.75;;;3.50;;
44276;SDS011;29973;43.742;1.236;2022-09-09T02:37:36;5.68;;;3.53;;
44276;SDS011;29973;43.742;1.236;2022-09-09T02:40:04;6.88;;;3.17;;
44276;SDS011;29973;43.742;1.236;2022-09-09T02:42:31;9.00;;;3.60;;
44276;SDS011;29973;43.742;1.236;2022-09-09T02:44:57;15.52;;;3.50;;
44276;SDS011;29973;43.742;1.236;2022-09-09T02:52:49;8.02;;;3.38;;
44276;SDS011;29973;43.742;1.236;2022-09-09T02:55:29;8.88;;;3.38;;
44276;SDS011;29973;43.742;1.236;2022-09-09T02:58:10;7.28;;;3.28;;
44276;SDS011;29973;43.742;1.236;2022-09-09T03:00:42;13.95;;;3.53;;
44276;SDS011;29973;43.742;1.236;2022-09-09T03:03:09;6.82;;;3.42;;
44276;SDS011;29973;43.742;1.236;2022-09-09T03:05:35;10.10;;;3.45;;
44276;SDS011;29973;43.742;1.236;2022-09-09T03:08:01;7.57;;;3.80;;
44276;SDS011;29973;43.742;1.236;2022-09-09T03:10:27;10.60;;;3.67;;
44276;SDS011;29973;43.742;1.236;2022-09-09T03:12:53;5.28;;;3.22;;
44276;SDS011;29973;43.742;1.236;2022-09-09T03:15:20;6.10;;;3.67;;
44276;SDS011;29973;43.742;1.236;2022-09-09T03:17:46;7.80;;;3.70;;
44276;SDS011;29973;43.742;1.236;2022-09-09T03:20:12;11.80;;;3.85;;
44276;SDS011;29973;43.742;1.236;2022-09-09T03:22:38;8.00;;;4.00;;
44276;SDS011;29973;43.742;1.236;2022-09-09T03:25:04;7.53;;;3.40;;
44276;SDS011;29973;43.742;1.236;2022-09-09T03:27:30;8.50;;;3.65;;
44276;SDS011;29973;43.742;1.236;2022-09-09T03:29:56;5.22;;;3.22;;
44276;SDS011;29973;43.742;1.236;2022-09-09T03:32:22;7.00;;;3.47;;
44276;SDS011;29973;43.742;1.236;2022-09-09T03:34:51;8.38;;;3.83;;
44276;SDS011;29973;43.742;1.236;2022-09-09T03:37:17;10.85;;;4.07;;
44276;SDS011;29973;43.742;1.236;2022-09-09T03:39:46;10.43;;;3.90;;
44276;SDS011;29973;43.742;1.236;2022-09-09T03:42:12;11.35;;;4.03;;
44276;SDS011;29973;43.742;1.236;2022-09-09T03:44:45;6.13;;;3.40;;
44276;SDS011;29973;43.742;1.236;2022-09-09T03:47:15;9.80;;;3.47;;
44276;SDS011;29973;43.742;1.236;2022-09-09T03:49:46;8.30;;;3.92;;
44276;SDS011;29973;43.742;1.236;2022-09-09T03:52:13;14.35;;;3.80;;
44276;SDS011;29973;43.742;1.236;2022-09-09T03:54:39;9.02;;;3.80;;
44276;SDS011;29973;43.742;1.236;2022-09-09T03:57:07;10.52;;;4.07;;
44276;SDS011;29973;43.742;1.236;2022-09-09T03:59:35;9.50;;;3.60;;
44276;SDS011;29973;43.742;1.236;2022-09-09T04:02:01;9.20;;;3.60;;
44276;SDS011;29973;43.742;1.236;2022-09-09T04:04:27;8.27;;;3.30;;
44276;SDS011;29973;43.742;1.236;2022-09-09T04:06:53;6.00;;;3.28;;
44276;SDS011;29973;43.742;1.236;2022-09-09T04:09:19;13.32;;;3.90;;
44276;SDS011;29973;43.742;1.236;2022-09-09T04:11:44;6.72;;;3.55;;
44276;SDS011;29973;43.742;1.236;2022-09-09T04:14:11;6.03;;;3.50;;
44276;SDS011;29973;43.742;1.236;2022-09-09T04:16:37;5.85;;;3.45;;
44276;SDS011;29973;43.742;1.236;2022-09-09T04:19:04;13.43;;;3.50;;
44276;SDS011;29973;43.742;1.236;2022-09-09T04:21:31;5.45;;;3.40;;
44276;SDS011;29973;43.742;1.236;2022-09-09T04:23:57;17.98;;;3.50;;
44276;SDS011;29973;43.742;1.236;2022-09-09T04:26:23;11.88;;;3.72;;
44276;SDS011;29973;43.742;1.236;2022-09-09T04:28:49;7.18;;;3.47;;
44276;SDS011;29973;43.742;1.236;2022-09-09T04:31:17;6.97;;;3.55;;
44276;SDS011;29973;43.742;1.236;2022-09-09T04:33:48;9.70;;;3.78;;
44276;SDS011;29973;43.742;1.236;2022-09-09T04:36:14;9.65;;;3.63;;
44276;SDS011;29973;43.742;1.236;2022-09-09T04:38:40;8.93;;;3.88;;
44276;SDS011;29973;43.742;1.236;2022-09-09T04:41:06;9.55;;;3.45;;
44276;SDS011;29973;43.742;1.236;2022-09-09T04:43:32;11.20;;;4.05;;
44276;SDS011;29973;43.742;1.236;2022-09-09T04:45:59;7.97;;;3.80;;
44276;SDS011;29973;43.742;1.236;2022-09-09T04:48:25;10.00;;;3.80;;
44276;SDS011;29973;43.742;1.236;2022-09-09T04:50:58;8.73;;;3.35;;
44276;SDS011;29973;43.742;1.236;2022-09-09T04:53:26;8.43;;;3.88;;
44276;SDS011;29973;43.742;1.236;2022-09-09T04:56:00;7.00;;;3.90;;
44276;SDS011;29973;43.742;1.236;2022-09-09T04:58:27;8.07;;;3.92;;
44276;SDS011;29973;43.742;1.236;2022-09-09T05:00:53;7.60;;;3.67;;
44276;SDS011;29973;43.742;1.236;2022-09-09T05:03:18;5.82;;;3.72;;
44276;SDS011;29973;43.742;1.236;2022-09-09T05:05:44;11.23;;;3.97;;
44276;SDS011;29973;43.742;1.236;2022-09-09T05:08:10;8.85;;;3.67;;
44276;SDS011;29973;43.742;1.236;2022-09-09T05:10:37;11.93;;;4.68;;
44276;SDS011;29973;43.742;1.236;2022-09-09T05:13:03;8.77;;;3.75;;
44276;SDS011;29973;43.742;1.236;2022-09-09T05:15:30;6.75;;;3.28;;
44276;SDS011;29973;43.742;1.236;2022-09-09T05:17:57;8.18;;;4.00;;
44276;SDS011;29973;43.742;1.236;2022-09-09T05:20:24;4.68;;;3.72;;
44276;SDS011;29973;43.742;1.236;2022-09-09T05:22:52;7.15;;;3.55;;
44276;SDS011;29973;43.742;1.236;2022-09-09T05:25:19;5.93;;;3.70;;
44276;SDS011;29973;43.742;1.236;2022-09-09T05:27:45;7.30;;;4.03;;
44276;SDS011;29973;43.742;1.236;2022-09-09T05:30:10;11.45;;;4.32;;
44276;SDS011;29973;43.742;1.236;2022-09-09T05:32:36;11.07;;;4.10;;
44276;SDS011;29973;43.742;1.236;2022-09-09T05:35:02;10.23;;;4.13;;
44276;SDS011;29973;43.742;1.236;2022-09-09T05:37:30;7.97;;;3.78;;
44276;SDS011;29973;43.742;1.236;2022-09-09T05:39:56;7.35;;;4.47;;
44276;SDS011;29973;43.742;1.236;2022-09-09T05:42:22;6.97;;;4.40;;
44276;SDS011;29973;43.742;1.236;2022-09-09T05:44:48;7.00;;;4.53;;
44276;SDS011;29973;43.742;1.236;2022-09-09T05:47:16;10.05;;;5.38;;
44276;SDS011;29973;43.742;1.236;2022-09-09T05:49:42;7.40;;;5.20;;
44276;SDS011;29973;43.742;1.236;2022-09-09T05:52:08;7.95;;;4.88;;
44276;SDS011;29973;43.742;1.236;2022-09-09T05:54:34;12.98;;;5.35;;
44276;SDS011;29973;43.742;1.236;2022-09-09T05:57:02;7.38;;;4.93;;
44276;SDS011;29973;43.742;1.236;2022-09-09T05:59:28;9.05;;;4.80;;
44276;SDS011;29973;43.742;1.236;2022-09-09T06:01:54;9.40;;;4.70;;
44276;SDS011;29973;43.742;1.236;2022-09-09T06:04:19;11.68;;;5.05;;
44276;SDS011;29973;43.742;1.236;2022-09-09T06:06:47;9.60;;;5.03;;
44276;SDS011;29973;43.742;1.236;2022-09-09T06:09:13;11.00;;;5.20;;
44276;SDS011;29973;43.742;1.236;2022-09-09T06:11:40;8.88;;;4.60;;
44276;SDS011;29973;43.742;1.236;2022-09-09T06:14:08;12.32;;;4.90;;
44276;SDS011;29973;43.742;1.236;2022-09-09T06:16:34;7.43;;;4.25;;
44276;SDS011;29973;43.742;1.236;2022-09-09T06:19:00;14.00;;;4.63;;
44276;SDS011;29973;43.742;1.236;2022-09-09T06:21:37;10.00;;;5.40;;
44276;SDS011;29973;43.742;1.236;2022-09-09T06:24:03;12.88;;;4.70;;
44276;SDS011;29973;43.742;1.236;2022-09-09T06:26:30;5.78;;;3.85;;
44276;SDS011;29973;43.742;1.236;2022-09-09T06:28:58;11.90;;;3.85;;
44276;SDS011;29973;43.742;1.236;2022-09-09T06:31:26;10.35;;;3.78;;
44276;SDS011;29973;43.742;1.236;2022-09-09T06:33:55;11.48;;;3.90;;
44276;SDS011;29973;43.742;1.236;2022-09-09T06:36:23;6.32;;;3.30;;
44276;SDS011;29973;43.742;1.236;2022-09-09T06:38:53;11.23;;;4.22;;
44276;SDS011;29973;43.742;1.236;2022-09-09T06:41:20;7.05;;;3.50;;
44276;SDS011;29973;43.742;1.236;2022-09-09T06:43:47;7.30;;;3.65;;
44276;SDS011;29973;43.742;1.236;2022-09-09T06:46:15;16.98;;;4.47;;
44276;SDS011;29973;43.742;1.236;2022-09-09T06:48:42;8.25;;;3.35;;
44276;SDS011;29973;43.742;1.236;2022-09-09T06:51:16;9.52;;;3.63;;
44276;SDS011;29973;43.742;1.236;2022-09-09T06:53:52;5.03;;;3.40;;
44276;SDS011;29973;43.742;1.236;2022-09-09T06:56:23;7.82;;;3.65;;
44276;SDS011;29973;43.742;1.236;2022-09-09T06:59:00;6.28;;;3.13;;
44276;SDS011;29973;43.742;1.236;2022-09-09T07:01:29;7.32;;;3.10;;
44276;SDS011;29973;43.742;1.236;2022-09-09T07:04:00;6.72;;;3.45;;
44276;SDS011;29973;43.742;1.236;2022-09-09T07:06:30;7.90;;;3.10;;
44276;SDS011;29973;43.742;1.236;2022-09-09T07:09:02;8.50;;;3.30;;
44276;SDS011;29973;43.742;1.236;2022-09-09T07:11:30;5.75;;;3.33;;
44276;SDS011;29973;43.742;1.236;2022-09-09T07:14:02;5.80;;;3.47;;
44276;SDS011;29973;43.742;1.236;2022-09-09T07:16:28;8.55;;;4.18;;
44276;SDS011;29973;43.742;1.236;2022-09-09T07:18:54;5.28;;;3.30;;
44276;SDS011;29973;43.742;1.236;2022-09-09T07:21:23;6.35;;;3.35;;
44276;SDS011;29973;43.742;1.236;2022-09-09T07:23:51;6.97;;;3.40;;
44276;SDS011;29973;43.742;1.236;2022-09-09T07:26:19;9.05;;;3.53;;
44276;SDS011;29973;43.742;1.236;2022-09-09T07:28:46;9.07;;;3.45;;
44276;SDS011;29973;43.742;1.236;2022-09-09T07:31:16;6.88;;;2.90;;
44276;SDS011;29973;43.742;1.236;2022-09-09T07:33:50;7.03;;;2.95;;
44276;SDS011;29973;43.742;1.236;2022-09-09T07:36:23;6.15;;;2.78;;
44276;SDS011;29973;43.742;1.236;2022-09-09T07:38:51;7.55;;;3.47;;
44276;SDS011;29973;43.742;1.236;2022-09-09T07:41:22;4.22;;;3.35;;
44276;SDS011;29973;43.742;1.236;2022-09-09T07:43:49;7.57;;;3.47;;
44276;SDS011;29973;43.742;1.236;2022-09-09T07:46:17;5.78;;;3.17;;
44276;SDS011;29973;43.742;1.236;2022-09-09T07:48:47;8.57;;;3.08;;
44276;SDS011;29973;43.742;1.236;2022-09-09T07:51:19;5.03;;;2.90;;
44276;SDS011;29973;43.742;1.236;2022-09-09T07:53:47;7.47;;;3.28;;
44276;SDS011;29973;43.742;1.236;2022-09-09T07:56:15;6.38;;;2.83;;
44276;SDS011;29973;43.742;1.236;2022-09-09T07:58:44;6.85;;;3.33;;
44276;SDS011;29973;43.742;1.236;2022-09-09T08:01:18;7.13;;;2.63;;
44276;SDS011;29973;43.742;1.236;2022-09-09T08:03:44;7.90;;;2.85;;
44276;SDS011;29973;43.742;1.236;2022-09-09T08:06:11;6.25;;;2.83;;
44276;SDS011;29973;43.742;1.236;2022-09-09T08:08:38;5.90;;;3.05;;
44276;SDS011;29973;43.742;1.236;2022-09-09T08:11:10;4.72;;;2.97;;
44276;SDS011;29973;43.742;1.236;2022-09-09T08:13:39;6.25;;;2.90;;
44276;SDS011;29973;43.742;1.236;2022-09-09T08:16:05;3.80;;;2.70;;
44276;SDS011;29973;43.742;1.236;2022-09-09T08:18:43;6.70;;;2.72;;
44276;SDS011;29973;43.742;1.236;2022-09-09T08:23:37;4.05;;;2.22;;
44276;SDS011;29973;43.742;1.236;2022-09-09T08:26:09;8.65;;;2.20;;
44276;SDS011;29973;43.742;1.236;2022-09-09T08:28:40;7.55;;;2.35;;
44276;SDS011;29973;43.742;1.236;2022-09-09T08:31:11;9.52;;;2.75;;
44276;SDS011;29973;43.742;1.236;2022-09-09T08:33:41;5.35;;;2.30;;
44276;SDS011;29973;43.742;1.236;2022-09-09T08:36:11;6.45;;;2.28;;
44276;SDS011;29973;43.742;1.236;2022-09-09T08:38:41;5.72;;;2.08;;
44276;SDS011;29973;43.742;1.236;2022-09-09T08:43:58;6.03;;;1.80;;
44276;SDS011;29973;43.742;1.236;2022-09-09T08:49:48;6.90;;;2.60;;
44276;SDS011;29973;43.742;1.236;2022-09-09T08:52:29;7.32;;;1.90;;
44276;SDS011;29973;43.742;1.236;2022-09-09T08:57:49;3.35;;;1.70;;
44276;SDS011;29973;43.742;1.236;2022-09-09T09:00:18;8.40;;;2.05;;
44276;SDS011;29973;43.742;1.236;2022-09-09T09:05:44;3.92;;;2.15;;
44276;SDS011;29973;43.742;1.236;2022-09-09T09:08:30;8.38;;;2.42;;
44276;SDS011;29973;43.742;1.236;2022-09-09T09:11:11;6.45;;;2.10;;
44276;SDS011;29973;43.742;1.236;2022-09-09T09:13:43;7.90;;;2.33;;
44276;SDS011;29973;43.742;1.236;2022-09-09T09:16:38;5.15;;;1.95;;
44276;SDS011;29973;43.742;1.236;2022-09-09T09:19:14;6.55;;;1.77;;
44276;SDS011;29973;43.742;1.236;2022-09-09T09:21:43;3.97;;;2.05;;
44276;SDS011;29973;43.742;1.236;2022-09-09T09:24:19;6.63;;;2.25;;
44276;SDS011;29973;43.742;1.236;2022-09-09T09:26:48;6.78;;;2.05;;
44276;SDS011;29973;43.742;1.236;2022-09-09T09:29:18;6.05;;;2.13;;
44276;SDS011;29973;43.742;1.236;2022-09-09T09:31:52;2.67;;;2.08;;
44276;SDS011;29973;43.742;1.236;2022-09-09T09:34:23;6.10;;;1.83;;
44276;SDS011;29973;43.742;1.236;2022-09-09T09:36:54;3.83;;;2.03;;
44276;SDS011;29973;43.742;1.236;2022-09-09T09:39:30;7.55;;;2.60;;
44276;SDS011;29973;43.742;1.236;2022-09-09T09:42:12;5.03;;;2.45;;
44276;SDS011;29973;43.742;1.236;2022-09-09T09:44:40;9.55;;;2.78;;
44276;SDS011;29973;43.742;1.236;2022-09-09T09:47:20;13.07;;;2.72;;
44276;SDS011;29973;43.742;1.236;2022-09-09T09:52:28;6.25;;;2.17;;
44276;SDS011;29973;43.742;1.236;2022-09-09T09:57:23;6.93;;;2.00;;
44276;SDS011;29973;43.742;1.236;2022-09-09T10:02:37;5.28;;;2.10;;
44276;SDS011;29973;43.742;1.236;2022-09-09T10:05:16;6.30;;;2.40;;
44276;SDS011;29973;43.742;1.236;2022-09-09T10:07:42;4.53;;;2.17;;
44276;SDS011;29973;43.742;1.236;2022-09-09T10:10:25;5.18;;;2.38;;
44276;SDS011;29973;43.742;1.236;2022-09-09T10:13:20;11.65;;;3.45;;
44276;SDS011;29973;43.742;1.236;2022-09-09T10:32:40;5.72;;;2.20;;
44276;SDS011;29973;43.742;1.236;2022-09-09T10:40:32;10.27;;;2.53;;
44276;SDS011;29973;43.742;1.236;2022-09-09T10:43:24;8.38;;;2.42;;
44276;SDS011;29973;43.742;1.236;2022-09-09T10:45:50;5.75;;;1.80;;
44276;SDS011;29973;43.742;1.236;2022-09-09T10:48:31;6.55;;;2.40;;
44276;SDS011;29973;43.742;1.236;2022-09-09T10:56:41;5.47;;;2.55;;
44276;SDS011;29973;43.742;1.236;2022-09-09T10:59:15;5.05;;;2.10;;
44276;SDS011;29973;43.742;1.236;2022-09-09T11:01:53;4.28;;;2.42;;
44276;SDS011;29973;43.742;1.236;2022-09-09T11:04:28;4.68;;;2.60;;
44276;SDS011;29973;43.742;1.236;2022-09-09T11:06:57;7.20;;;3.90;;
44276;SDS011;29973;43.742;1.236;2022-09-09T11:11:58;9.95;;;4.97;;
44276;SDS011;29973;43.742;1.236;2022-09-09T11:17:20;6.75;;;4.00;;
44276;SDS011;29973;43.742;1.236;2022-09-09T11:19:49;10.73;;;3.67;;
44276;SDS011;29973;43.742;1.236;2022-09-09T11:25:18;4.93;;;2.78;;
44276;SDS011;29973;43.742;1.236;2022-09-09T11:35:57;10.38;;;4.38;;
44276;SDS011;29973;43.742;1.236;2022-09-09T11:38:45;8.82;;;3.88;;
44276;SDS011;29973;43.742;1.236;2022-09-09T11:41:19;8.73;;;3.78;;
44276;SDS011;29973;43.742;1.236;2022-09-09T11:43:50;10.23;;;3.70;;
44276;SDS011;29973;43.742;1.236;2022-09-09T11:46:17;7.80;;;3.63;;
44276;SDS011;29973;43.742;1.236;2022-09-09T11:48:57;6.22;;;2.47;;
44276;SDS011;29973;43.742;1.236;2022-09-09T11:51:29;7.05;;;1.88;;
44276;SDS011;29973;43.742;1.236;2022-09-09T11:54:25;6.50;;;2.05;;
44276;SDS011;29973;43.742;1.236;2022-09-09T11:56:57;4.15;;;1.42;;
44276;SDS011;29973;43.742;1.236;2022-09-09T11:59:23;5.93;;;1.67;;
44276;SDS011;29973;43.742;1.236;2022-09-09T12:01:58;10.45;;;2.17;;
44276;SDS011;29973;43.742;1.236;2022-09-09T12:05:07;9.70;;;1.45;;
44276;SDS011;29973;43.742;1.236;2022-09-09T12:10:27;8.75;;;1.63;;
44276;SDS011;29973;43.742;1.236;2022-09-09T12:13:19;6.82;;;1.45;;
44276;SDS011;29973;43.742;1.236;2022-09-09T12:15:54;5.65;;;1.55;;
44276;SDS011;29973;43.742;1.236;2022-09-09T12:18:39;13.55;;;1.92;;
44276;SDS011;29973;43.742;1.236;2022-09-09T12:24:10;5.28;;;1.38;;
44276;SDS011;29973;43.742;1.236;2022-09-09T12:29:27;3.58;;;1.30;;
44276;SDS011;29973;43.742;1.236;2022-09-09T12:32:11;18.20;;;1.92;;
44276;SDS011;29973;43.742;1.236;2022-09-09T12:37:29;5.53;;;1.73;;
44276;SDS011;29973;43.742;1.236;2022-09-09T12:40:03;7.32;;;1.65;;
44276;SDS011;29973;43.742;1.236;2022-09-09T12:42:31;12.63;;;1.63;;
44276;SDS011;29973;43.742;1.236;2022-09-09T12:45:01;7.43;;;1.30;;
44276;SDS011;29973;43.742;1.236;2022-09-09T12:47:44;4.38;;;1.13;;
44276;SDS011;29973;43.742;1.236;2022-09-09T12:50:23;5.72;;;1.50;;
44276;SDS011;29973;43.742;1.236;2022-09-09T12:52:52;7.07;;;1.77;;
44276;SDS011;29973;43.742;1.236;2022-09-09T12:55:30;8.40;;;1.85;;
44276;SDS011;29973;43.742;1.236;2022-09-09T12:57:58;15.07;;;2.28;;
44276;SDS011;29973;43.742;1.236;2022-09-09T13:00:26;7.60;;;1.60;;
44276;SDS011;29973;43.742;1.236;2022-09-09T13:02:56;7.20;;;1.42;;
44276;SDS011;29973;43.742;1.236;2022-09-09T13:05:27;10.35;;;1.70;;
44276;SDS011;29973;43.742;1.236;2022-09-09T13:08:02;8.25;;;1.75;;
44276;SDS011;29973;43.742;1.236;2022-09-09T13:10:30;8.40;;;1.70;;
44276;SDS011;29973;43.742;1.236;2022-09-09T13:13:03;7.53;;;1.67;;
44276;SDS011;29973;43.742;1.236;2022-09-09T13:15:36;4.63;;;1.58;;
44276;SDS011;29973;43.742;1.236;2022-09-09T13:18:04;7.13;;;1.90;;
44276;SDS011;29973;43.742;1.236;2022-09-09T13:20:36;9.43;;;1.90;;
44276;SDS011;29973;43.742;1.236;2022-09-09T13:23:02;11.52;;;1.42;;
44276;SDS011;29973;43.742;1.236;2022-09-09T13:25:28;4.75;;;1.60;;
44276;SDS011;29973;43.742;1.236;2022-09-09T13:28:36;6.10;;;1.83;;
44276;SDS011;29973;43.742;1.236;2022-09-09T13:30:54;3.92;;;1.40;;
44276;SDS011;29973;43.742;1.236;2022-09-09T13:33:28;7.30;;;2.00;;
44276;SDS011;29973;43.742;1.236;2022-09-09T13:35:56;7.45;;;1.90;;
44276;SDS011;29973;43.742;1.236;2022-09-09T13:39:16;4.18;;;1.25;;
44276;SDS011;29973;43.742;1.236;2022-09-09T13:41:19;5.72;;;1.45;;
44276;SDS011;29973;43.742;1.236;2022-09-09T13:43:47;6.45;;;1.77;;
44276;SDS011;29973;43.742;1.236;2022-09-09T13:46:23;4.55;;;1.45;;
44276;SDS011;29973;43.742;1.236;2022-09-09T13:49:16;4.47;;;1.40;;
44276;SDS011;29973;43.742;1.236;2022-09-09T13:51:46;6.65;;;1.65;;
44276;SDS011;29973;43.742;1.236;2022-09-09T13:54:16;5.32;;;1.85;;
44276;SDS011;29973;43.742;1.236;2022-09-09T13:56:44;6.63;;;1.73;;
44276;SDS011;29973;43.742;1.236;2022-09-09T13:59:14;5.05;;;1.70;;
44276;SDS011;29973;43.742;1.236;2022-09-09T14:04:06;5.85;;;1.70;;
44276;SDS011;29973;43.742;1.236;2022-09-09T14:06:34;4.70;;;1.80;;
44276;SDS011;29973;43.742;1.236;2022-09-09T14:09:03;7.68;;;1.90;;
44276;SDS011;29973;43.742;1.236;2022-09-09T14:11:30;5.72;;;1.60;;
44276;SDS011;29973;43.742;1.236;2022-09-09T14:13:55;3.35;;;1.42;;
44276;SDS011;29973;43.742;1.236;2022-09-09T14:16:21;7.63;;;1.90;;
44276;SDS011;29973;43.742;1.236;2022-09-09T14:18:47;5.70;;;2.53;;
44276;SDS011;29973;43.742;1.236;2022-09-09T14:21:13;3.95;;;1.40;;
44276;SDS011;29973;43.742;1.236;2022-09-09T14:23:40;5.63;;;1.67;;
44276;SDS011;29973;43.742;1.236;2022-09-09T14:26:06;5.32;;;1.73;;
44276;SDS011;29973;43.742;1.236;2022-09-09T14:28:33;6.75;;;1.70;;
44276;SDS011;29973;43.742;1.236;2022-09-09T14:31:00;4.25;;;1.65;;
44276;SDS011;29973;43.742;1.236;2022-09-09T14:33:27;7.28;;;2.17;;
44276;SDS011;29973;43.742;1.236;2022-09-09T14:35:59;5.38;;;1.48;;
44276;SDS011;29973;43.742;1.236;2022-09-09T14:38:30;6.47;;;1.55;;
44276;SDS011;29973;43.742;1.236;2022-09-09T14:41:03;4.20;;;1.80;;
44276;SDS011;29973;43.742;1.236;2022-09-09T14:43:29;6.22;;;1.85;;
44276;SDS011;29973;43.742;1.236;2022-09-09T14:45:57;5.35;;;1.77;;
44276;SDS011;29973;43.742;1.236;2022-09-09T14:48:30;4.80;;;1.35;;
44276;SDS011;29973;43.742;1.236;2022-09-09T14:50:56;5.85;;;1.60;;
44276;SDS011;29973;43.742;1.236;2022-09-09T14:53:22;4.45;;;1.35;;
44276;SDS011;29973;43.742;1.236;2022-09-09T14:55:48;7.00;;;2.00;;
44276;SDS011;29973;43.742;1.236;2022-09-09T14:58:14;6.20;;;1.65;;
44276;SDS011;29973;43.742;1.236;2022-09-09T15:00:39;5.13;;;1.30;;
44276;SDS011;29973;43.742;1.236;2022-09-09T15:03:06;6.53;;;1.48;;
44276;SDS011;29973;43.742;1.236;2022-09-09T15:05:31;3.60;;;1.00;;
44276;SDS011;29973;43.742;1.236;2022-09-09T15:07:57;7.15;;;1.63;;
44276;SDS011;29973;43.742;1.236;2022-09-09T15:10:23;9.38;;;3.13;;
44276;SDS011;29973;43.742;1.236;2022-09-09T15:12:49;8.55;;;1.65;;
44276;SDS011;29973;43.742;1.236;2022-09-09T15:15:15;3.25;;;1.33;;
44276;SDS011;29973;43.742;1.236;2022-09-09T15:17:40;7.45;;;1.48;;
44276;SDS011;29973;43.742;1.236;2022-09-09T15:20:06;3.88;;;1.45;;
44276;SDS011;29973;43.742;1.236;2022-09-09T15:22:32;6.63;;;1.50;;
44276;SDS011;29973;43.742;1.236;2022-09-09T15:24:58;8.48;;;1.52;;
44276;SDS011;29973;43.742;1.236;2022-09-09T15:27:24;2.83;;;1.40;;
44276;SDS011;29973;43.742;1.236;2022-09-09T15:29:50;6.43;;;1.83;;
44276;SDS011;29973;43.742;1.236;2022-09-09T15:32:16;6.63;;;1.50;;
44276;SDS011;29973;43.742;1.236;2022-09-09T15:34:43;4.60;;;1.23;;
44276;SDS011;29973;43.742;1.236;2022-09-09T15:37:12;8.88;;;1.60;;
44276;SDS011;29973;43.742;1.236;2022-09-09T15:39:38;5.28;;;1.35;;
44276;SDS011;29973;43.742;1.236;2022-09-09T15:42:04;3.83;;;1.30;;
44276;SDS011;29973;43.742;1.236;2022-09-09T15:44:38;4.60;;;1.70;;
44276;SDS011;29973;43.742;1.236;2022-09-09T15:47:04;3.35;;;1.40;;
44276;SDS011;29973;43.742;1.236;2022-09-09T15:49:30;7.45;;;1.80;;
44276;SDS011;29973;43.742;1.236;2022-09-09T15:51:56;6.97;;;1.70;;
44276;SDS011;29973;43.742;1.236;2022-09-09T15:54:24;4.70;;;1.60;;
44276;SDS011;29973;43.742;1.236;2022-09-09T15:56:51;4.90;;;1.42;;
44276;SDS011;29973;43.742;1.236;2022-09-09T15:59:20;5.90;;;1.92;;
44276;SDS011;29973;43.742;1.236;2022-09-09T16:01:50;7.78;;;1.63;;
44276;SDS011;29973;43.742;1.236;2022-09-09T16:04:16;6.65;;;1.88;;
44276;SDS011;29973;43.742;1.236;2022-09-09T16:06:52;3.88;;;1.70;;
44276;SDS011;29973;43.742;1.236;2022-09-09T16:09:23;6.30;;;1.67;;
44276;SDS011;29973;43.742;1.236;2022-09-09T16:11:49;3.25;;;1.67;;
44276;SDS011;29973;43.742;1.236;2022-09-09T16:14:16;8.00;;;2.05;;
44276;SDS011;29973;43.742;1.236;2022-09-09T16:16:42;7.40;;;1.77;;
44276;SDS011;29973;43.742;1.236;2022-09-09T16:19:10;4.68;;;1.35;;
44276;SDS011;29973;43.742;1.236;2022-09-09T16:21:41;13.32;;;1.83;;
44276;SDS011;29973;43.742;1.236;2022-09-09T16:24:10;7.20;;;1.45;;
44276;SDS011;29973;43.742;1.236;2022-09-09T16:26:39;6.97;;;1.27;;
44276;SDS011;29973;43.742;1.236;2022-09-09T16:29:08;2.97;;;1.30;;
44276;SDS011;29973;43.742;1.236;2022-09-09T16:31:35;5.07;;;1.40;;
44276;SDS011;29973;43.742;1.236;2022-09-09T16:34:00;5.38;;;1.38;;
44276;SDS011;29973;43.742;1.236;2022-09-09T16:36:28;5.88;;;1.38;;
44276;SDS011;29973;43.742;1.236;2022-09-09T16:39:00;4.07;;;1.20;;
44276;SDS011;29973;43.742;1.236;2022-09-09T16:41:28;5.13;;;1.05;;
44276;SDS011;29973;43.742;1.236;2022-09-09T16:43:58;3.97;;;1.05;;
44276;SDS011;29973;43.742;1.236;2022-09-09T16:46:27;6.93;;;1.40;;
44276;SDS011;29973;43.742;1.236;2022-09-09T16:48:55;7.45;;;0.95;;
44276;SDS011;29973;43.742;1.236;2022-09-09T16:51:24;7.90;;;1.20;;
44276;SDS011;29973;43.742;1.236;2022-09-09T16:53:55;5.82;;;1.45;;
44276;SDS011;29973;43.742;1.236;2022-09-09T16:56:24;5.25;;;1.15;;
44276;SDS011;29973;43.742;1.236;2022-09-09T16:58:53;4.88;;;0.77;;
44276;SDS011;29973;43.742;1.236;2022-09-09T17:01:21;10.93;;;0.97;;
44276;SDS011;29973;43.742;1.236;2022-09-09T17:03:57;5.00;;;1.00;;
44276;SDS011;29973;43.742;1.236;2022-09-09T17:06:26;2.60;;;1.00;;
44276;SDS011;29973;43.742;1.236;2022-09-09T17:08:59;5.88;;;1.00;;
44276;SDS011;29973;43.742;1.236;2022-09-09T17:11:28;6.15;;;1.10;;
44276;SDS011;29973;43.742;1.236;2022-09-09T17:13:55;6.68;;;1.10;;
44276;SDS011;29973;43.742;1.236;2022-09-09T17:16:22;10.27;;;1.15;;
44276;SDS011;29973;43.742;1.236;2022-09-09T17:18:49;9.43;;;1.02;;